createdAt,value
2022-08-29T00:00:25.879Z,79.48
2022-08-29T00:03:08.980Z,79.40
2022-08-29T00:05:40.091Z,79.23
2022-08-29T00:08:10.705Z,79.46
2022-08-29T00:10:40.086Z,79.41
2022-08-29T00:13:10.158Z,79.35
2022-08-29T00:15:45.140Z,79.49
2022-08-29T00:18:16.450Z,79.52
2022-08-29T00:20:45.862Z,79.47
2022-08-29T00:23:14.319Z,79.59
2022-08-29T00:25:42.483Z,79.42
2022-08-29T00:28:10.967Z,79.73
2022-08-29T00:30:40.210Z,79.60
2022-08-29T00:33:09.529Z,79.82
2022-08-29T00:35:40.474Z,79.90
2022-08-29T00:38:11.169Z,79.77
2022-08-29T00:40:47.880Z,79.93
2022-08-29T00:43:24.904Z,79.73
2022-08-29T00:46:39.120Z,79.78
2022-08-29T00:49:12.019Z,79.88
2022-08-29T00:51:41.559Z,79.89
2022-08-29T00:54:12.011Z,79.81
2022-08-29T00:56:41.933Z,79.82
2022-08-29T00:59:20.525Z,79.79
2022-08-29T01:01:48.786Z,79.94
2022-08-29T01:04:23.591Z,79.86
2022-08-29T01:06:54.201Z,79.96
2022-08-29T01:09:24.275Z,79.86
2022-08-29T01:12:11.998Z,79.88
2022-08-29T01:14:45.961Z,80.11
2022-08-29T01:17:18.263Z,80.01
2022-08-29T01:19:54.992Z,80.20
2022-08-29T01:23:03.349Z,80.24
2022-08-29T01:25:37.016Z,80.36
2022-08-29T01:28:15.389Z,80.54
2022-08-29T01:31:05.261Z,80.59
2022-08-29T01:33:50.725Z,80.66
2022-08-29T01:36:32.830Z,80.86
2022-08-29T01:39:01.184Z,80.94
2022-08-29T01:41:30.478Z,80.83
2022-08-29T01:43:58.597Z,81.01
2022-08-29T01:46:34.991Z,81.06
2022-08-29T01:49:09.005Z,81.16
2022-08-29T01:51:37.859Z,81.26
2022-08-29T01:54:07.590Z,81.30
2022-08-29T01:56:42.245Z,81.53
2022-08-29T01:59:14.407Z,81.88
2022-08-29T02:01:52.494Z,81.89
2022-08-29T02:04:21.291Z,81.89
2022-08-29T02:06:49.578Z,81.99
2022-08-29T02:09:18.178Z,81.94
2022-08-29T02:11:46.656Z,82.26
2022-08-29T02:14:19.446Z,82.33
2022-08-29T02:16:48.274Z,82.29
2022-08-29T02:19:17.503Z,82.48
2022-08-29T02:21:45.922Z,82.48
2022-08-29T02:24:25.590Z,82.64
2022-08-29T02:26:56.198Z,82.73
2022-08-29T02:29:26.691Z,82.62
2022-08-29T02:32:09.126Z,82.90
2022-08-29T02:34:38.030Z,82.79
2022-08-29T02:37:06.412Z,83.00
2022-08-29T02:39:35.178Z,82.89
2022-08-29T02:42:13.061Z,83.05
2022-08-29T02:44:40.950Z,83.07
2022-08-29T02:47:09.728Z,83.04
2022-08-29T02:49:39.617Z,83.10
2022-08-29T02:52:08.776Z,83.13
2022-08-29T02:54:37.564Z,83.31
2022-08-29T02:57:06.291Z,83.18
2022-08-29T02:59:34.280Z,83.29
2022-08-29T03:02:02.922Z,83.28
2022-08-29T03:04:31.430Z,83.32
2022-08-29T03:06:59.430Z,83.33
2022-08-29T03:09:27.555Z,83.64
2022-08-29T03:11:56.650Z,83.55
2022-08-29T03:14:25.586Z,83.44
2022-08-29T03:16:53.818Z,83.56
2022-08-29T03:19:23.063Z,83.52
2022-08-29T03:21:51.347Z,83.68
2022-08-29T03:24:26.916Z,83.76
2022-08-29T03:26:56.770Z,83.80
2022-08-29T03:29:25.827Z,83.90
2022-08-29T03:31:58.681Z,84.11
2022-08-29T03:34:28.496Z,84.11
2022-08-29T03:36:56.555Z,84.28
2022-08-29T03:39:25.496Z,84.08
2022-08-29T03:41:53.991Z,84.23
2022-08-29T03:44:22.695Z,84.01
2022-08-29T03:46:50.519Z,84.04
2022-08-29T03:49:18.706Z,83.86
2022-08-29T03:51:46.664Z,83.90
2022-08-29T03:54:14.582Z,83.76
2022-08-29T03:56:42.938Z,83.69
2022-08-29T03:59:11.468Z,83.56
2022-08-29T04:01:39.692Z,83.49
2022-08-29T04:04:08.754Z,83.51
2022-08-29T04:06:37.095Z,83.48
2022-08-29T04:09:05.714Z,83.48
2022-08-29T04:11:33.813Z,83.39
2022-08-29T04:14:02.363Z,83.20
2022-08-29T04:16:31.363Z,83.15
2022-08-29T04:18:59.984Z,82.97
2022-08-29T04:21:28.110Z,83.07
2022-08-29T04:23:57.872Z,82.84
2022-08-29T04:26:36.550Z,82.58
2022-08-29T04:29:06.982Z,82.75
2022-08-29T04:31:36.719Z,82.73
2022-08-29T04:34:07.049Z,82.98
2022-08-29T04:36:36.558Z,82.88
2022-08-29T04:39:05.880Z,82.75
2022-08-29T04:41:33.963Z,82.96
2022-08-29T04:44:04.058Z,82.91
2022-08-29T04:46:32.879Z,82.91
2022-08-29T04:49:04.226Z,83.02
2022-08-29T04:51:34.743Z,83.36
2022-08-29T04:54:05.224Z,83.28
2022-08-29T04:56:34.796Z,83.26
2022-08-29T04:59:03.230Z,83.39
2022-08-29T05:01:32.138Z,83.37
2022-08-29T05:04:00.300Z,83.55
2022-08-29T05:06:28.986Z,83.43
2022-08-29T05:08:59.673Z,83.47
2022-08-29T05:11:31.815Z,83.60
2022-08-29T05:14:00.689Z,83.43
2022-08-29T05:16:34.556Z,83.51
2022-08-29T05:19:06.479Z,83.39
2022-08-29T05:21:38.112Z,83.31
2022-08-29T05:24:10.054Z,83.28
2022-08-29T05:26:44.478Z,83.37
2022-08-29T05:29:13.400Z,83.41
2022-08-29T05:31:44.679Z,83.40
2022-08-29T05:34:34.456Z,83.30
2022-08-29T05:37:09.493Z,83.57
2022-08-29T05:39:39.272Z,83.38
2022-08-29T05:42:08.954Z,83.43
2022-08-29T05:44:37.195Z,83.64
2022-08-29T05:47:07.924Z,83.57
2022-08-29T05:49:41.457Z,83.85
2022-08-29T05:52:10.997Z,83.72
2022-08-29T05:54:41.692Z,83.77
2022-08-29T05:57:16.631Z,83.66
2022-08-29T05:59:48.773Z,83.73
2022-08-29T06:02:18.394Z,83.73
2022-08-29T06:04:46.714Z,83.56
2022-08-29T06:07:15.269Z,83.59
2022-08-29T06:09:44.282Z,83.58
2022-08-29T06:12:15.179Z,83.50
2022-08-29T06:14:50.244Z,83.40
2022-08-29T06:17:20.191Z,83.30
2022-08-29T06:19:52.306Z,83.31
2022-08-29T06:22:21.097Z,83.17
2022-08-29T06:24:57.518Z,83.16
2022-08-29T06:27:25.956Z,83.17
2022-08-29T06:29:54.419Z,83.18
2022-08-29T06:32:22.391Z,83.15
2022-08-29T06:34:50.561Z,83.26
2022-08-29T06:37:19.004Z,83.16
2022-08-29T06:39:46.938Z,82.83
2022-08-29T06:42:15.113Z,82.61
2022-08-29T06:44:44.575Z,82.62
2022-08-29T06:47:13.138Z,82.39
2022-08-29T06:49:41.705Z,82.34
2022-08-29T06:52:09.743Z,82.40
2022-08-29T06:54:38.634Z,82.37
2022-08-29T06:57:06.882Z,82.19
2022-08-29T06:59:35.594Z,82.11
2022-08-29T07:02:03.851Z,81.93
2022-08-29T07:04:31.889Z,81.23
2022-08-29T07:07:00.314Z,81.23
2022-08-29T07:09:31.352Z,81.45
2022-08-29T07:11:59.251Z,81.48
2022-08-29T07:14:27.663Z,81.42
2022-08-29T07:16:56.799Z,81.15
2022-08-29T07:19:24.760Z,80.83
2022-08-29T07:21:57.980Z,80.60
2022-08-29T07:24:27.190Z,80.40
2022-08-29T07:26:55.328Z,80.43
2022-08-29T07:29:23.694Z,80.56
2022-08-29T07:31:52.287Z,80.49
2022-08-29T07:34:20.914Z,80.51
2022-08-29T07:36:49.207Z,80.42
2022-08-29T07:39:19.376Z,80.60
2022-08-29T07:41:47.601Z,80.70
2022-08-29T07:44:17.216Z,80.94
2022-08-29T07:46:45.628Z,81.11
2022-08-29T07:49:14.033Z,81.37
2022-08-29T07:51:44.231Z,81.49
2022-08-29T07:54:17.108Z,81.75
2022-08-29T07:56:46.943Z,81.87
2022-08-29T07:59:15.546Z,81.96
2022-08-29T08:01:44.554Z,82.02
2022-08-29T08:04:27.622Z,81.90
2022-08-29T08:06:57.349Z,82.04
2022-08-29T08:09:25.363Z,82.05
2022-08-29T08:11:53.648Z,82.21
2022-08-29T08:14:21.656Z,81.66
2022-08-29T08:17:04.135Z,81.34
2022-08-29T08:19:33.496Z,81.18
2022-08-29T08:22:01.432Z,81.18
2022-08-29T08:24:29.824Z,81.03
2022-08-29T08:26:58.214Z,80.65
2022-08-29T08:29:26.497Z,80.25
2022-08-29T08:52:42.791Z,75.74
2022-08-29T08:55:53.104Z,75.20
2022-08-29T08:58:55.102Z,74.32
2022-08-29T09:01:29.261Z,74.27
2022-08-29T09:04:27.199Z,73.68
2022-08-29T09:07:14.959Z,73.62
2022-08-29T09:10:02.854Z,73.53
2022-08-29T09:13:00.854Z,73.09
2022-08-29T09:15:40.452Z,73.07
2022-08-29T09:18:21.846Z,71.47
2022-08-29T09:20:52.058Z,71.42
2022-08-29T09:23:44.435Z,71.43
2022-08-29T09:26:19.911Z,71.13
2022-08-29T09:28:49.704Z,70.93
2022-08-29T09:31:33.297Z,70.10
2022-08-29T09:34:12.093Z,69.20
2022-08-29T09:36:40.554Z,69.22
2022-08-29T09:39:18.985Z,69.00
2022-08-29T09:41:52.456Z,68.87
2022-08-29T09:44:35.578Z,68.49
2022-08-29T09:47:09.743Z,68.11
2022-08-29T09:49:42.186Z,68.07
2022-08-29T09:52:24.177Z,67.87
2022-08-29T09:54:52.433Z,67.36
2022-08-29T09:57:25.012Z,67.11
2022-08-29T10:00:13.865Z,66.74
2022-08-29T10:02:47.895Z,66.16
2022-08-29T10:05:29.149Z,64.72
2022-08-29T10:07:58.269Z,64.31
2022-08-29T10:10:33.193Z,64.31
2022-08-29T10:13:21.354Z,62.73
2022-08-29T10:15:59.537Z,64.18
2022-08-29T10:18:43.479Z,63.05
2022-08-29T10:21:14.377Z,63.49
2022-08-29T10:24:08.007Z,62.04
2022-08-29T10:26:55.204Z,61.87
2022-08-29T10:29:36.418Z,61.42
2022-08-29T10:32:47.670Z,60.60
2022-08-29T10:35:23.225Z,60.65
2022-08-29T10:37:57.120Z,61.40
2022-08-29T10:40:50.720Z,61.54
2022-08-29T10:43:30.946Z,60.88
2022-08-29T10:46:06.419Z,60.14
2022-08-29T10:49:09.046Z,60.08
2022-08-29T10:51:44.153Z,59.47
2022-08-29T10:54:50.052Z,58.82
2022-08-29T10:57:40.343Z,58.40
2022-08-29T11:00:15.100Z,58.33
2022-08-29T11:03:10.515Z,57.33
2022-08-29T11:05:49.746Z,57.51
2022-08-29T11:08:23.064Z,58.05
2022-08-29T11:10:52.670Z,57.93
2022-08-29T11:13:32.943Z,54.82
2022-08-29T11:16:17.742Z,55.04
2022-08-29T11:18:55.310Z,55.53
2022-08-29T11:21:35.316Z,54.79
2022-08-29T11:24:05.746Z,54.38
2022-08-29T11:26:40.155Z,52.34
2022-08-29T11:29:24.728Z,51.53
2022-08-29T11:32:15.251Z,51.49
2022-08-29T11:34:54.074Z,50.89
2022-08-29T11:37:42.439Z,51.00
2022-08-29T11:41:26.304Z,51.14
2022-08-29T11:43:39.256Z,50.98
2022-08-29T11:46:10.721Z,51.05
2022-08-29T11:48:42.022Z,50.47
2022-08-29T11:51:36.107Z,50.68
2022-08-29T11:54:24.909Z,50.72
2022-08-29T11:57:02.638Z,50.64
2022-08-29T11:59:49.373Z,50.99
2022-08-29T12:02:30.520Z,51.22
2022-08-29T12:05:16.772Z,50.66
2022-08-29T12:08:36.003Z,49.40
2022-08-29T12:11:06.874Z,49.11
2022-08-29T12:13:44.148Z,49.15
2022-08-29T12:16:14.697Z,48.96
2022-08-29T12:18:47.023Z,48.68
2022-08-29T12:21:48.885Z,48.44
2022-08-29T12:24:40.114Z,49.11
2022-08-29T12:27:54.700Z,48.04
2022-08-29T12:30:22.769Z,47.02
2022-08-29T12:33:08.183Z,46.80
2022-08-29T12:35:50.366Z,46.42
2022-08-29T12:38:50.162Z,47.42
2022-08-29T12:41:42.338Z,47.77
2022-08-29T12:44:17.142Z,47.18
2022-08-29T12:46:48.680Z,45.65
2022-08-29T12:49:21.237Z,44.66
2022-08-29T12:51:59.042Z,44.99
2022-08-29T12:54:32.832Z,44.58
2022-08-29T12:57:02.894Z,43.83
2022-08-29T12:59:31.060Z,44.01
2022-08-29T13:01:59.741Z,44.86
2022-08-29T13:04:36.556Z,45.43
2022-08-29T13:07:07.996Z,43.62
2022-08-29T13:09:41.844Z,44.94
2022-08-29T13:12:18.148Z,43.88
2022-08-29T13:14:52.552Z,43.21
2022-08-29T13:17:30.745Z,44.01
2022-08-29T13:20:49.151Z,43.73
2022-08-29T13:23:28.019Z,44.21
2022-08-29T13:25:59.288Z,44.08
2022-08-29T13:28:45.575Z,43.82
2022-08-29T13:31:19.731Z,44.65
2022-08-29T13:33:50.940Z,45.30
2022-08-29T13:36:31.061Z,43.95
2022-08-29T13:39:18.322Z,43.28
2022-08-29T13:42:10.404Z,43.05
2022-08-29T13:44:59.130Z,42.23
2022-08-29T13:47:33.229Z,42.79
2022-08-29T13:50:06.110Z,43.00
2022-08-29T13:52:34.569Z,42.84
2022-08-29T13:55:03.459Z,42.55
2022-08-29T13:57:31.781Z,43.03
2022-08-29T14:00:01.234Z,42.95
2022-08-29T14:02:34.664Z,41.89
2022-08-29T14:05:03.004Z,42.31
2022-08-29T14:07:31.824Z,42.48
2022-08-29T14:10:01.350Z,42.36
2022-08-29T14:12:33.836Z,43.09
2022-08-29T14:15:08.994Z,43.44
2022-08-29T14:17:41.964Z,42.20
2022-08-29T14:20:10.738Z,42.23
2022-08-29T14:22:38.999Z,42.64
2022-08-29T14:25:08.364Z,42.44
2022-08-29T14:27:37.252Z,42.40
2022-08-29T14:30:07.159Z,42.18
2022-08-29T14:32:35.933Z,43.58
2022-08-29T14:35:05.382Z,43.76
2022-08-29T14:37:34.866Z,43.42
2022-08-29T14:40:05.416Z,42.23
2022-08-29T14:42:33.401Z,42.00
2022-08-29T14:45:01.713Z,42.91
2022-08-29T14:47:30.188Z,43.55
2022-08-29T14:49:58.165Z,42.54
2022-08-29T14:52:26.583Z,42.17
2022-08-29T14:54:57.375Z,42.82
2022-08-29T14:57:27.497Z,43.39
2022-08-29T14:59:55.471Z,44.08
2022-08-29T15:02:23.658Z,43.64
2022-08-29T15:04:51.562Z,44.43
2022-08-29T15:07:19.680Z,44.87
2022-08-29T15:09:48.024Z,44.88
2022-08-29T15:12:18.061Z,45.00
2022-08-29T15:14:46.407Z,45.09
2022-08-29T15:17:15.485Z,45.43
2022-08-29T15:22:32.636Z,45.50
2022-08-29T15:25:01.138Z,45.68
2022-08-29T15:27:30.082Z,44.60
2022-08-29T15:29:59.752Z,44.54
2022-08-29T15:32:27.792Z,45.16
2022-08-29T15:34:55.570Z,45.37
2022-08-29T15:37:23.692Z,45.34
2022-08-29T15:39:54.552Z,44.52
2022-08-29T15:42:29.899Z,44.61
2022-08-29T15:45:07.987Z,43.82
2022-08-29T15:47:36.605Z,43.14
2022-08-29T15:50:08.410Z,43.74
2022-08-29T15:52:37.583Z,43.81
2022-08-29T15:55:07.366Z,43.46
2022-08-29T15:57:39.577Z,43.79
2022-08-29T16:00:30.610Z,43.98
2022-08-29T16:03:02.828Z,44.31
2022-08-29T16:05:32.678Z,44.37
2022-08-29T16:08:02.380Z,44.28
2022-08-29T16:10:31.739Z,45.07
2022-08-29T16:13:20.489Z,45.12
2022-08-29T16:15:50.308Z,45.68
2022-08-29T16:18:18.689Z,45.84
2022-08-29T16:20:46.675Z,45.72
2022-08-29T16:23:15.527Z,45.87
2022-08-29T16:25:44.322Z,45.76
2022-08-29T16:28:13.528Z,45.95
2022-08-29T16:30:46.078Z,46.50
2022-08-29T16:33:14.758Z,46.65
2022-08-29T16:35:43.283Z,46.88
2022-08-29T16:38:11.936Z,46.86
2022-08-29T16:40:40.403Z,46.93
2022-08-29T16:43:08.598Z,47.05
2022-08-29T16:45:36.877Z,47.40
2022-08-29T16:48:15.726Z,47.49
2022-08-29T16:50:45.209Z,48.19
2022-08-29T16:53:13.421Z,48.25
2022-08-29T16:55:41.202Z,48.57
2022-08-29T16:58:27.996Z,48.52
2022-08-29T17:00:55.995Z,49.17
2022-08-29T17:03:24.133Z,49.49
2022-08-29T17:05:52.212Z,49.48
2022-08-29T17:08:20.193Z,49.74
2022-08-29T17:10:48.058Z,50.12
2022-08-29T17:13:15.846Z,50.37
2022-08-29T17:15:43.894Z,50.59
2022-08-29T17:18:12.002Z,50.81
2022-08-29T17:20:41.573Z,51.14
2022-08-29T17:23:15.960Z,51.50
2022-08-29T17:25:43.992Z,51.89
2022-08-29T17:28:18.071Z,52.33
2022-08-29T17:30:49.127Z,52.79
2022-08-29T17:33:18.873Z,52.61
2022-08-29T17:35:47.400Z,52.76
2022-08-29T17:38:16.237Z,53.05
2022-08-29T17:40:44.650Z,53.29
2022-08-29T17:43:13.259Z,53.32
2022-08-29T17:45:42.007Z,53.73
2022-08-29T17:48:10.178Z,54.08
2022-08-29T17:50:39.260Z,53.97
2022-08-29T17:53:07.530Z,54.31
2022-08-29T17:55:35.421Z,54.69
2022-08-29T17:58:03.589Z,54.99
2022-08-29T18:00:32.320Z,55.22
2022-08-29T18:03:00.311Z,55.52
2022-08-29T18:05:29.176Z,55.86
2022-08-29T18:07:57.725Z,56.25
2022-08-29T18:10:25.762Z,56.60
2022-08-29T18:12:53.793Z,56.93
2022-08-29T18:15:22.247Z,57.18
2022-08-29T18:17:51.577Z,57.78
2022-08-29T18:20:22.079Z,57.96
2022-08-29T18:22:50.402Z,58.45
2022-08-29T18:25:22.702Z,58.71
2022-08-29T18:27:51.093Z,59.01
2022-08-29T18:30:20.529Z,59.39
2022-08-29T18:32:48.986Z,59.66
2022-08-29T18:35:17.299Z,60.07
2022-08-29T18:37:45.225Z,60.43
2022-08-29T18:40:13.700Z,60.62
2022-08-29T18:42:41.839Z,60.65
2022-08-29T18:45:11.418Z,61.10
2022-08-29T18:47:40.704Z,61.37
2022-08-29T18:50:28.642Z,61.48
2022-08-29T18:52:57.361Z,61.86
2022-08-29T18:55:27.936Z,62.06
2022-08-29T18:57:56.398Z,62.12
2022-08-29T19:00:25.246Z,62.33
2022-08-29T19:02:55.232Z,62.31
2022-08-29T19:05:25.059Z,62.51
2022-08-29T19:07:53.484Z,62.68
2022-08-29T19:10:22.784Z,62.86
2022-08-29T19:12:50.723Z,62.88
2022-08-29T19:15:21.484Z,63.02
2022-08-29T19:17:49.919Z,63.24
2022-08-29T19:20:39.670Z,63.09
2022-08-29T19:23:09.205Z,63.25
2022-08-29T19:25:38.507Z,63.47
2022-08-29T19:28:08.554Z,63.57
2022-08-29T19:30:38.322Z,63.50
2022-08-29T19:33:08.338Z,63.63
2022-08-29T19:35:39.085Z,63.85
2022-08-29T19:38:08.265Z,63.91
2022-08-29T19:40:39.238Z,64.06
2022-08-29T19:43:13.667Z,64.26
2022-08-29T19:48:33.558Z,64.49
2022-08-29T19:51:02.199Z,64.53
2022-08-29T19:53:30.279Z,64.55
2022-08-29T19:55:58.597Z,64.70
2022-08-29T19:58:31.599Z,64.87
2022-08-29T20:01:02.119Z,65.04
2022-08-29T20:03:31.220Z,65.26
2022-08-29T20:06:00.322Z,65.17
2022-08-29T20:08:31.429Z,65.54
2022-08-29T20:10:59.893Z,65.47
2022-08-29T20:13:31.575Z,65.45
2022-08-29T20:16:09.233Z,65.74
2022-08-29T20:18:38.368Z,65.89
2022-08-29T20:21:06.535Z,65.90
2022-08-29T20:23:34.686Z,65.85
2022-08-29T20:26:03.157Z,65.98
2022-08-29T20:28:31.759Z,66.09
2022-08-29T20:31:01.180Z,66.22
2022-08-29T20:33:29.249Z,66.21
2022-08-29T20:36:16.084Z,66.34
2022-08-29T20:38:44.715Z,66.44
2022-08-29T20:41:13.492Z,66.58
2022-08-29T20:43:44.132Z,66.65
2022-08-29T20:46:12.859Z,66.68
2022-08-29T20:48:41.110Z,66.79
2022-08-29T20:51:10.405Z,67.11
2022-08-29T20:53:40.555Z,67.10
2022-08-29T20:56:09.418Z,67.23
2022-08-29T20:58:37.621Z,67.39
2022-08-29T21:01:05.926Z,67.59
2022-08-29T21:03:53.089Z,67.73
2022-08-29T21:06:22.158Z,67.85
2022-08-29T21:08:50.788Z,68.03
2022-08-29T21:11:19.242Z,68.12
2022-08-29T21:13:49.060Z,68.29
2022-08-29T21:16:21.067Z,68.20
2022-08-29T21:18:53.538Z,68.30
2022-08-29T21:21:24.826Z,68.37
2022-08-29T21:23:53.647Z,68.57
2022-08-29T21:26:21.647Z,68.74
2022-08-29T21:28:49.871Z,68.80
2022-08-29T21:31:19.605Z,68.89
2022-08-29T21:33:48.254Z,68.96
2022-08-29T21:36:24.615Z,69.26
2022-08-29T21:38:55.252Z,69.31
2022-08-29T21:41:24.684Z,69.46
2022-08-29T21:43:52.757Z,69.39
2022-08-29T21:46:27.416Z,69.62
2022-08-29T21:48:57.499Z,69.80
2022-08-29T21:51:27.111Z,69.93
2022-08-29T21:53:57.266Z,69.95
2022-08-29T21:56:28.247Z,70.05
2022-08-29T21:58:57.277Z,70.25
2022-08-29T22:01:30.150Z,70.20
2022-08-29T22:04:01.178Z,70.32
2022-08-29T22:06:29.997Z,70.37
2022-08-29T22:08:59.578Z,70.56
2022-08-29T22:11:37.681Z,70.45
2022-08-29T22:14:08.073Z,70.54
2022-08-29T22:16:37.160Z,70.70
2022-08-29T22:19:10.055Z,70.81
2022-08-29T22:21:41.721Z,70.87
2022-08-29T22:24:10.973Z,70.88
2022-08-29T22:26:40.941Z,70.93
2022-08-29T22:29:12.029Z,71.08
2022-08-29T22:31:42.677Z,71.20
2022-08-29T22:34:11.896Z,71.21
2022-08-29T22:36:39.815Z,71.26
2022-08-29T22:39:08.259Z,71.22
2022-08-29T22:41:36.538Z,71.23
2022-08-29T22:46:54.695Z,71.42
2022-08-29T22:49:22.719Z,71.27
2022-08-29T22:51:53.195Z,71.40
2022-08-29T22:54:36.773Z,71.39
2022-08-29T22:57:09.079Z,71.58
2022-08-29T22:59:38.107Z,71.54
2022-08-29T23:02:06.600Z,71.60
2022-08-29T23:04:35.978Z,71.71
2022-08-29T23:07:06.141Z,71.74
2022-08-29T23:09:35.164Z,71.80
2022-08-29T23:12:10.983Z,71.89
2022-08-29T23:14:42.411Z,72.06
2022-08-29T23:17:10.732Z,72.08
2022-08-29T23:19:41.222Z,72.18
2022-08-29T23:22:11.269Z,72.29
2022-08-29T23:24:41.605Z,72.31
2022-08-29T23:27:30.064Z,72.33
2022-08-29T23:29:58.990Z,72.41
2022-08-29T23:32:34.253Z,72.61
2022-08-29T23:35:03.863Z,72.73
2022-08-29T23:37:31.939Z,72.68
2022-08-29T23:40:01.483Z,72.86
2022-08-29T23:42:30.559Z,72.89
2022-08-29T23:44:58.656Z,72.85
2022-08-29T23:47:26.557Z,72.81
2022-08-29T23:49:54.739Z,72.88
2022-08-29T23:52:23.145Z,72.95
2022-08-29T23:54:51.098Z,72.94
2022-08-29T23:57:19.156Z,73.03
